Time;durP1;ratioP1;P1;durP2;ratioP2;P2;SDS_P1;SDS_P2;PMS_P1;PMS_P2;Temp;Humidity;BMP_temperature;BMP_pressure;BME280_temperature;BME280_humidity;BME280_pressure;Samples;Min_cycle;Max_cycle;Signal;HPM_P1;HPM_P2
2021/01/14 05:00:52;;;;;;;5.35;4.45;;;2.10;99.90;;;;;;5727991;23;20260;-68
2021/01/14 05:03:23;;;;;;;4.55;4.15;;;2.10;99.90;;;;;;4936743;29;20206;-67
2021/01/14 05:05:50;;;;;;;6.13;5.25;;;2.10;99.90;;;;;;4936840;29;20226;-66
2021/01/14 05:08:18;;;;;;;5.35;3.85;;;2.10;99.90;;;;;;4918694;29;20222;-67
2021/01/14 05:10:44;;;;;;;5.30;4.90;;;2.10;99.90;;;;;;4925519;29;20226;-67
2021/01/14 05:13:11;;;;;;;5.70;4.82;;;2.10;99.90;;;;;;4937054;29;20210;-66
2021/01/14 05:15:39;;;;;;;7.43;4.93;;;2.10;99.90;;;;;;4938807;29;20203;-66
2021/01/14 05:18:06;;;;;;;5.25;4.72;;;2.10;99.90;;;;;;4937600;29;20213;-66
2021/01/14 05:20:32;;;;;;;5.63;5.03;;;2.10;99.90;;;;;;4939132;29;20225;-66
2021/01/14 05:22:59;;;;;;;6.07;5.30;;;2.10;99.90;;;;;;4955596;28;20216;-66
2021/01/14 05:25:26;;;;;;;6.80;5.72;;;2.10;99.90;;;;;;4953060;28;20210;-66
2021/01/14 05:27:52;;;;;;;8.60;5.65;;;2.20;99.90;;;;;;4956539;28;20240;-66
2021/01/14 05:30:21;;;;;;;6.35;4.70;;;2.20;99.90;;;;;;4952605;28;20207;-67
2021/01/14 05:32:49;;;;;;;4.20;4.00;;;2.20;99.90;;;;;;4956209;28;20582;-67
2021/01/14 05:35:27;;;;;;;5.47;4.97;;;2.20;99.90;;;;;;4937167;28;20239;-67
2021/01/14 05:38:00;;;;;;;6.18;5.68;;;2.20;99.90;;;;;;4934119;28;20264;-67
2021/01/14 05:40:28;;;;;;;9.90;4.75;;;2.20;99.90;;;;;;4943520;29;20741;-67
2021/01/14 05:43:00;;;;;;;9.68;6.07;;;2.20;99.90;;;;;;4918203;29;20210;-66
2021/01/14 05:45:27;;;;;;;7.43;5.35;;;2.20;99.90;;;;;;4953310;29;20220;-67
2021/01/14 05:48:07;;;;;;;5.43;4.95;;;2.20;99.90;;;;;;4927879;29;20227;-67
2021/01/14 05:50:42;;;;;;;7.05;5.00;;;2.20;99.90;;;;;;4952794;29;20225;-67
2021/01/14 05:53:13;;;;;;;6.00;4.88;;;2.20;99.90;;;;;;4937354;29;20692;-67
2021/01/14 05:55:42;;;;;;;6.00;4.60;;;2.30;99.90;;;;;;4922070;29;20204;-66
2021/01/14 05:58:12;;;;;;;5.32;4.72;;;2.20;99.90;;;;;;4938417;29;20206;-67
2021/01/14 06:00:42;;;;;;;5.88;5.35;;;2.20;99.90;;;;;;4956376;28;20229;-67
2021/01/14 06:03:26;;;;;;;8.70;5.70;;;2.20;99.90;;;;;;4939162;28;20210;-67
2021/01/14 06:05:53;;;;;;;6.20;5.65;;;2.20;99.90;;;;;;4926805;29;20231;-67
2021/01/14 06:08:22;;;;;;;5.38;4.63;;;2.20;99.90;;;;;;4953987;29;20205;-67
2021/01/14 06:10:48;;;;;;;6.25;5.35;;;2.30;99.90;;;;;;4947788;28;20278;-66
2021/01/14 06:13:15;;;;;;;6.78;5.10;;;2.30;99.90;;;;;;4954439;28;21006;-67
2021/01/14 06:15:41;;;;;;;5.72;4.63;;;2.20;99.90;;;;;;4948093;28;20289;-67
2021/01/14 06:18:10;;;;;;;5.07;4.57;;;2.30;99.90;;;;;;4943251;29;20226;-68
2021/01/14 06:20:50;;;;;;;6.50;5.90;;;2.20;99.90;;;;;;4917553;29;20226;-67
2021/01/14 06:23:18;;;;;;;5.70;5.05;;;2.30;99.90;;;;;;4935291;29;20213;-67
2021/01/14 06:25:48;;;;;;;6.65;5.97;;;2.30;99.90;;;;;;4936059;29;20214;-68
2021/01/14 06:28:15;;;;;;;6.30;5.47;;;2.30;99.90;;;;;;4950471;29;20220;-69
2021/01/14 06:30:57;;;;;;;5.85;5.30;;;2.30;99.90;;;;;;4949151;29;20611;-68
2021/01/14 06:33:25;;;;;;;5.97;5.10;;;2.30;99.90;;;;;;4936251;28;20207;-68
2021/01/14 06:36:06;;;;;;;6.43;5.25;;;2.30;99.90;;;;;;4944340;29;20206;-67
2021/01/14 06:38:42;;;;;;;7.05;5.13;;;2.30;99.90;;;;;;4941895;28;20210;-67
2021/01/14 06:41:16;;;;;;;6.28;5.38;;;2.30;99.90;;;;;;4944784;29;20233;-68
2021/01/14 06:43:43;;;;;;;6.50;5.80;;;2.30;99.90;;;;;;4940002;29;20201;-67
2021/01/14 06:46:16;;;;;;;8.35;5.75;;;2.30;99.90;;;;;;4942158;28;20248;-68
2021/01/14 06:48:59;;;;;;;7.00;6.00;;;2.30;99.90;;;;;;4953072;28;20550;-68
2021/01/14 06:51:35;;;;;;;6.43;5.80;;;2.30;99.90;;;;;;4935314;29;20602;-67
2021/01/14 06:54:10;;;;;;;5.70;5.30;;;2.30;99.90;;;;;;4935437;29;20209;-69
2021/01/14 06:56:47;;;;;;;8.32;6.57;;;2.30;99.90;;;;;;4935655;29;20304;-68
2021/01/14 06:59:16;;;;;;;6.43;5.07;;;2.30;99.90;;;;;;4933349;29;20214;-67
2021/01/14 07:01:58;;;;;;;7.85;6.07;;;2.30;99.90;;;;;;4935362;29;20702;-68
2021/01/14 07:04:36;;;;;;;6.28;5.40;;;2.30;99.90;;;;;;4953521;29;20220;-68
2021/01/14 07:07:16;;;;;;;7.07;5.43;;;2.30;99.90;;;;;;4919544;28;20222;-68
2021/01/14 07:09:49;;;;;;;6.47;5.88;;;2.30;99.90;;;;;;4916791;29;20199;-67
2021/01/14 07:12:16;;;;;;;9.55;6.35;;;2.30;99.90;;;;;;4916278;29;20239;-68
2021/01/14 07:14:47;;;;;;;5.25;4.82;;;2.30;99.90;;;;;;4953417;29;20209;-67
2021/01/14 07:17:30;;;;;;;6.88;6.18;;;2.30;99.90;;;;;;4954489;28;20272;-67
2021/01/14 07:19:57;;;;;;;7.65;6.00;;;2.30;99.90;;;;;;4918061;29;20300;-67
2021/01/14 07:22:25;;;;;;;9.02;6.30;;;2.30;99.90;;;;;;4934399;29;20273;-67
2021/01/14 07:24:54;;;;;;;7.85;7.07;;;2.30;99.90;;;;;;4954411;29;20209;-68
2021/01/14 07:27:20;;;;;;;7.53;5.30;;;2.40;99.90;;;;;;4936783;28;20234;-68
2021/01/14 07:29:48;;;;;;;7.60;6.80;;;2.30;99.90;;;;;;4933256;29;20802;-68
2021/01/14 07:32:14;;;;;;;6.93;6.22;;;2.40;99.90;;;;;;4950397;29;20232;-68
2021/01/14 07:34:41;;;;;;;7.00;5.18;;;2.40;99.90;;;;;;4947339;28;20569;-68
2021/01/14 07:37:09;;;;;;;5.97;5.45;;;2.40;99.90;;;;;;4949353;29;20216;-68
2021/01/14 07:39:46;;;;;;;5.80;5.25;;;2.40;99.90;;;;;;4954568;28;20693;-68
2021/01/14 07:42:21;;;;;;;6.20;5.60;;;2.30;99.90;;;;;;4929287;28;20225;-69
2021/01/14 07:44:50;;;;;;;8.63;6.53;;;2.40;99.90;;;;;;4915207;29;20356;-68
2021/01/14 07:47:26;;;;;;;9.85;6.63;;;2.30;99.90;;;;;;4925950;29;20240;-67
2021/01/14 07:49:52;;;;;;;6.82;6.13;;;2.30;99.90;;;;;;4935341;29;20245;-67
2021/01/14 07:52:30;;;;;;;6.13;5.55;;;2.40;99.90;;;;;;4933093;29;20229;-66
2021/01/14 07:55:00;;;;;;;6.35;5.30;;;2.30;99.90;;;;;;4915500;29;20214;-66
2021/01/14 07:57:34;;;;;;;6.20;5.60;;;2.30;99.90;;;;;;4931487;29;20635;-69
2021/01/14 08:00:08;;;;;;;6.25;5.53;;;2.30;99.90;;;;;;4915544;29;20210;-65
2021/01/14 08:03:08;;;;;;;6.40;5.53;;;2.30;99.90;;;;;;4945727;29;20221;-65
2021/01/14 08:05:42;;;;;;;7.93;6.20;;;2.20;99.90;;;;;;4947816;28;20202;-67
2021/01/14 08:08:31;;;;;;;6.20;5.70;;;2.20;99.90;;;;;;4952944;29;20225;-66
2021/01/14 08:11:16;;;;;;;9.25;6.07;;;2.10;99.90;;;;;;4944977;28;20313;-66
2021/01/14 08:14:03;;;;;;;5.75;5.03;;;2.10;99.90;;;;;;4929756;29;20365;-67
2021/01/14 08:16:34;;;;;;;7.18;6.57;;;2.10;99.90;;;;;;4938549;29;20558;-66
2021/01/14 08:19:23;;;;;;;6.40;5.82;;;2.10;99.90;;;;;;4953658;28;20209;-66
2021/01/14 08:22:05;;;;;;;7.00;6.30;;;2.00;99.90;;;;;;4933969;28;20230;-67
2021/01/14 08:24:54;;;;;;;5.90;5.30;;;2.00;99.90;;;;;;4937197;29;20241;-65
2021/01/14 08:27:34;;;;;;;7.32;5.85;;;1.90;99.90;;;;;;4951538;29;20600;-66
2021/01/14 08:30:04;;;;;;;7.40;6.00;;;1.90;99.90;;;;;;4956847;28;20591;-66
2021/01/14 08:32:32;;;;;;;10.55;7.47;;;1.90;99.90;;;;;;4934827;28;20230;-66
2021/01/14 08:34:59;;;;;;;10.90;7.03;;;1.90;99.90;;;;;;4932422;28;20218;-66
2021/01/14 08:37:30;;;;;;;14.02;8.75;;;1.80;99.90;;;;;;4932767;28;20214;-66
2021/01/14 08:40:03;;;;;;;10.63;7.53;;;1.80;99.90;;;;;;4937316;29;20248;-66
2021/01/14 08:42:30;;;;;;;10.27;7.63;;;1.80;99.90;;;;;;4926623;29;20231;-66
2021/01/14 08:45:01;;;;;;;12.98;6.60;;;1.80;99.90;;;;;;4929033;29;20208;-67
2021/01/14 08:48:09;;;;;;;6.50;5.32;;;1.80;99.90;;;;;;4937411;29;20218;-66
2021/01/14 08:50:43;;;;;;;9.32;7.05;;;1.80;99.90;;;;;;4896296;29;20234;-66
2021/01/14 08:53:11;;;;;;;14.90;6.90;;;1.80;99.90;;;;;;4918169;29;20206;-67
2021/01/14 08:55:38;;;;;;;11.05;6.25;;;1.90;99.90;;;;;;4918852;29;20222;-67
2021/01/14 08:58:06;;;;;;;8.00;6.15;;;1.90;99.90;;;;;;4954364;29;20675;-66
2021/01/14 09:00:34;;;;;;;8.45;5.95;;;1.90;99.90;;;;;;4920555;29;20234;-67
2021/01/14 09:03:00;;;;;;;9.43;6.68;;;1.90;99.90;;;;;;4936332;29;20564;-67
2021/01/14 09:05:28;;;;;;;6.32;5.78;;;1.90;99.90;;;;;;4937834;29;20222;-65
2021/01/14 09:08:09;;;;;;;8.23;6.45;;;1.90;99.90;;;;;;4937698;29;20236;-66
2021/01/14 09:10:47;;;;;;;6.80;5.93;;;2.00;99.90;;;;;;4923340;29;20226;-66
2021/01/14 09:13:14;;;;;;;7.45;6.57;;;2.00;99.90;;;;;;4936714;29;20218;-66
2021/01/14 09:15:41;;;;;;;6.78;6.18;;;2.00;99.90;;;;;;4937266;29;20213;-66
2021/01/14 09:18:08;;;;;;;8.98;5.88;;;2.00;99.90;;;;;;4936972;29;20213;-67
2021/01/14 09:20:35;;;;;;;7.82;6.80;;;2.10;99.90;;;;;;4934718;29;20314;-67
2021/01/14 09:23:18;;;;;;;8.30;5.85;;;2.10;99.90;;;;;;4948400;29;20209;-66
2021/01/14 09:25:46;;;;;;;9.75;6.43;;;2.20;99.90;;;;;;4956426;28;20227;-66
2021/01/14 09:28:12;;;;;;;8.95;6.15;;;2.30;99.90;;;;;;4941931;28;20229;-66
2021/01/14 09:30:39;;;;;;;8.10;6.47;;;2.40;99.90;;;;;;4937199;29;20734;-66
2021/01/14 09:33:06;;;;;;;9.00;6.50;;;2.60;99.90;;;;;;4935414;29;20213;-66
2021/01/14 09:35:32;;;;;;;5.88;5.38;;;2.70;99.90;;;;;;4927417;29;20210;-67
2021/01/14 09:37:58;;;;;;;6.55;5.95;;;2.70;99.90;;;;;;4928743;29;20279;-67
2021/01/14 09:40:25;;;;;;;6.60;5.65;;;2.80;99.90;;;;;;4942113;28;20579;-66
2021/01/14 09:42:52;;;;;;;6.20;5.60;;;2.80;99.90;;;;;;4937304;28;20213;-66
2021/01/14 09:45:20;;;;;;;6.30;5.70;;;2.90;99.90;;;;;;4942200;29;20232;-66
2021/01/14 09:47:48;;;;;;;6.80;6.20;;;2.90;99.90;;;;;;4946958;28;20222;-67
2021/01/14 09:50:16;;;;;;;6.88;5.75;;;2.90;99.90;;;;;;4935466;29;20212;-67
2021/01/14 09:52:43;;;;;;;6.25;5.75;;;2.90;99.90;;;;;;4935922;29;20202;-67
2021/01/14 09:55:13;;;;;;;6.90;6.20;;;2.90;99.90;;;;;;4934220;29;20221;-66
2021/01/14 09:57:45;;;;;;;8.85;6.38;;;2.90;99.90;;;;;;4928149;28;20231;-67
2021/01/14 10:00:17;;;;;;;7.13;6.35;;;2.90;99.90;;;;;;4931691;29;20261;-66
2021/01/14 10:02:47;;;;;;;6.95;5.53;;;2.90;99.90;;;;;;4949643;29;20209;-66
2021/01/14 10:05:16;;;;;;;6.95;6.22;;;2.90;99.90;;;;;;4921933;29;20206;-66
2021/01/14 10:07:45;;;;;;;6.70;6.15;;;2.90;99.90;;;;;;4936664;29;20230;-67
2021/01/14 10:10:12;;;;;;;6.30;5.40;;;3.00;99.90;;;;;;4920337;29;20214;-67
2021/01/14 10:12:38;;;;;;;10.20;6.03;;;2.90;99.90;;;;;;4918905;29;20214;-67
2021/01/14 10:15:09;;;;;;;5.90;5.30;;;3.00;99.90;;;;;;4927643;28;20217;-67
2021/01/14 10:17:37;;;;;;;6.90;6.20;;;3.00;99.90;;;;;;4924314;29;20203;-67
2021/01/14 10:20:04;;;;;;;7.55;6.07;;;3.00;99.90;;;;;;4932319;29;20399;-65
2021/01/14 10:22:31;;;;;;;6.10;5.50;;;2.90;99.90;;;;;;4921661;29;20333;-66
2021/01/14 10:25:07;;;;;;;5.80;5.40;;;3.00;99.90;;;;;;4927990;29;20218;-67
2021/01/14 10:27:33;;;;;;;9.23;5.70;;;3.00;99.90;;;;;;4929787;29;20244;-66
2021/01/14 10:30:15;;;;;;;7.38;5.43;;;3.00;99.90;;;;;;4921771;29;20215;-67
2021/01/14 10:32:42;;;;;;;9.60;6.53;;;3.00;99.90;;;;;;4916735;29;20191;-67
2021/01/14 10:35:08;;;;;;;5.90;5.40;;;3.00;99.90;;;;;;4935691;29;20209;-67
2021/01/14 10:37:35;;;;;;;6.72;5.22;;;3.10;99.90;;;;;;4942426;28;20202;-66
2021/01/14 10:40:04;;;;;;;6.25;5.63;;;3.10;99.90;;;;;;4932863;28;20206;-67
2021/01/14 10:42:33;;;;;;;8.75;6.07;;;3.10;99.90;;;;;;4943952;29;20229;-67
2021/01/14 10:45:00;;;;;;;7.25;5.25;;;3.10;99.90;;;;;;4954541;28;20296;-66
2021/01/14 10:47:27;;;;;;;9.68;5.78;;;3.10;99.90;;;;;;4946718;28;20222;-66
2021/01/14 10:49:53;;;;;;;5.90;5.07;;;3.10;99.90;;;;;;4931748;29;20294;-66
2021/01/14 10:52:19;;;;;;;9.05;6.20;;;3.10;99.90;;;;;;4916778;29;20234;-66
2021/01/14 10:54:56;;;;;;;6.07;5.47;;;3.10;99.90;;;;;;4922983;29;20726;-66
2021/01/14 10:57:23;;;;;;;5.68;5.25;;;3.10;99.90;;;;;;4922291;29;20217;-67
2021/01/14 10:59:49;;;;;;;7.05;5.95;;;3.20;99.90;;;;;;4916077;29;20730;-66
2021/01/14 11:02:22;;;;;;;7.63;5.47;;;3.20;99.90;;;;;;4945196;29;20713;-67
2021/01/14 11:04:53;;;;;;;6.70;5.85;;;3.20;99.90;;;;;;4919015;29;20211;-67
2021/01/14 11:07:19;;;;;;;6.72;6.13;;;3.20;99.90;;;;;;4926623;29;20238;-67
2021/01/14 11:09:49;;;;;;;6.03;5.25;;;3.30;99.90;;;;;;4916986;29;20214;-67
2021/01/14 11:12:17;;;;;;;8.05;6.60;;;3.30;99.90;;;;;;4915590;29;20253;-66
2021/01/14 11:14:44;;;;;;;8.02;5.90;;;3.20;99.90;;;;;;4915558;29;20694;-68
2021/01/14 11:17:13;;;;;;;6.13;5.70;;;3.20;99.90;;;;;;4918876;29;20207;-67
2021/01/14 11:19:39;;;;;;;9.88;6.03;;;3.20;99.90;;;;;;4915792;29;20525;-67
2021/01/14 11:22:05;;;;;;;5.90;5.40;;;3.20;99.90;;;;;;4926297;29;20230;-68
2021/01/14 11:24:31;;;;;;;7.22;5.53;;;3.20;99.90;;;;;;4934821;29;20425;-67
2021/01/14 11:26:57;;;;;;;7.75;5.00;;;3.10;99.90;;;;;;4929101;29;20229;-66
2021/01/14 11:29:24;;;;;;;6.75;6.18;;;3.10;99.90;;;;;;4923107;28;20260;-68
2021/01/14 11:31:50;;;;;;;8.00;6.10;;;3.10;99.90;;;;;;4916379;29;20558;-68
2021/01/14 11:34:16;;;;;;;8.27;6.30;;;3.10;99.90;;;;;;4921316;29;20206;-68
2021/01/14 11:36:42;;;;;;;7.30;6.10;;;3.00;99.90;;;;;;4931094;29;20333;-68
2021/01/14 11:39:08;;;;;;;5.97;5.47;;;3.10;99.90;;;;;;4915656;29;20207;-68
2021/01/14 11:41:34;;;;;;;7.70;6.13;;;3.10;99.90;;;;;;4916708;29;20614;-68
2021/01/14 11:44:00;;;;;;;8.15;6.40;;;3.10;99.90;;;;;;4931229;29;20209;-68
2021/01/14 11:46:27;;;;;;;6.32;5.72;;;3.10;99.90;;;;;;4915968;29;20226;-68
2021/01/14 11:48:53;;;;;;;6.60;5.85;;;3.10;99.90;;;;;;4922673;29;20218;-68
2021/01/14 11:51:20;;;;;;;9.73;6.25;;;3.00;99.90;;;;;;4920268;29;20232;-68
2021/01/14 11:53:46;;;;;;;11.63;5.80;;;3.10;99.90;;;;;;4928896;29;20214;-68
2021/01/14 11:56:15;;;;;;;7.03;6.43;;;3.10;99.90;;;;;;4931261;29;20207;-68
2021/01/14 11:58:41;;;;;;;8.25;6.07;;;3.10;99.90;;;;;;4923810;29;20278;-69
2021/01/14 12:01:08;;;;;;;6.03;5.53;;;3.00;99.90;;;;;;4932057;29;20246;-67
2021/01/14 12:03:35;;;;;;;7.07;5.95;;;3.00;99.90;;;;;;4932743;29;20212;-68
2021/01/14 12:06:01;;;;;;;6.13;5.50;;;3.00;99.90;;;;;;4924998;29;20642;-67
2021/01/14 12:08:27;;;;;;;8.07;5.45;;;3.00;99.90;;;;;;4934771;29;20232;-68
2021/01/14 12:10:53;;;;;;;8.43;5.95;;;3.00;99.90;;;;;;4944705;28;20237;-67
2021/01/14 12:13:19;;;;;;;6.10;5.47;;;3.00;99.90;;;;;;4939414;28;20216;-68
2021/01/14 12:15:45;;;;;;;7.30;5.80;;;3.00;99.90;;;;;;4945346;28;20201;-67
2021/01/14 12:18:11;;;;;;;5.90;5.40;;;3.00;99.90;;;;;;4921466;29;20225;-68
2021/01/14 12:20:38;;;;;;;6.43;5.70;;;3.00;99.90;;;;;;4926601;29;20233;-67
2021/01/14 12:23:05;;;;;;;8.13;5.88;;;3.00;99.90;;;;;;4944019;28;20514;-68
2021/01/14 12:25:31;;;;;;;5.45;5.05;;;3.00;99.90;;;;;;4936196;29;20229;-68
2021/01/14 12:27:57;;;;;;;7.22;5.60;;;3.00;99.90;;;;;;4937877;29;20328;-67
2021/01/14 12:30:24;;;;;;;6.82;5.30;;;2.90;99.90;;;;;;4922646;29;20214;-67
2021/01/14 12:32:50;;;;;;;7.07;6.47;;;2.90;99.90;;;;;;4934106;29;20202;-67
2021/01/14 12:35:16;;;;;;;7.85;6.65;;;2.90;99.90;;;;;;4919895;29;20218;-67
2021/01/14 12:37:43;;;;;;;6.10;5.60;;;2.90;99.90;;;;;;4935055;29;20631;-67
2021/01/14 12:40:10;;;;;;;7.47;5.80;;;2.90;99.90;;;;;;4957458;28;20205;-67
2021/01/14 12:42:37;;;;;;;7.20;6.60;;;2.90;99.90;;;;;;4936832;28;20206;-67
2021/01/14 12:45:04;;;;;;;13.30;7.65;;;2.90;99.90;;;;;;4918653;29;20215;-68
2021/01/14 12:47:31;;;;;;;7.07;6.43;;;2.90;99.90;;;;;;4931128;29;20223;-68
2021/01/14 12:49:57;;;;;;;6.68;5.97;;;2.80;99.90;;;;;;4927171;29;20325;-68
2021/01/14 12:52:23;;;;;;;10.00;6.15;;;2.80;99.90;;;;;;4944636;28;20602;-68
2021/01/14 12:54:50;;;;;;;6.35;5.75;;;2.80;99.90;;;;;;4923862;29;20222;-68
2021/01/14 12:57:16;;;;;;;8.15;6.57;;;2.80;99.90;;;;;;4936238;28;20207;-68
2021/01/14 12:59:42;;;;;;;7.28;6.20;;;2.80;99.90;;;;;;4934043;29;20213;-68
2021/01/14 13:02:08;;;;;;;10.00;8.85;;;2.80;99.90;;;;;;4926141;28;20313;-67
2021/01/14 13:04:34;;;;;;;7.90;7.05;;;2.80;99.90;;;;;;4926949;29;20213;-67
2021/01/14 13:07:00;;;;;;;7.47;6.70;;;2.80;99.90;;;;;;4920152;29;20222;-67
2021/01/14 13:09:27;;;;;;;7.90;7.07;;;2.80;99.90;;;;;;4934701;28;20216;-67
2021/01/14 13:11:57;;;;;;;11.77;7.70;;;2.80;99.90;;;;;;4921990;29;20230;-66
2021/01/14 13:14:25;;;;;;;7.45;5.97;;;2.80;99.90;;;;;;4922017;29;20214;-68
2021/01/14 13:16:52;;;;;;;9.85;7.45;;;2.70;99.90;;;;;;4935095;29;20374;-67
2021/01/14 13:19:19;;;;;;;12.68;8.27;;;2.80;99.90;;;;;;4927312;29;20300;-67
2021/01/14 13:21:46;;;;;;;9.52;7.60;;;2.80;99.90;;;;;;4941818;28;20237;-67
2021/01/14 13:24:14;;;;;;;9.10;7.40;;;2.80;99.90;;;;;;4949291;28;20583;-67
2021/01/14 13:26:41;;;;;;;7.85;7.13;;;2.80;99.90;;;;;;4937297;29;20226;-67
2021/01/14 13:29:09;;;;;;;8.48;6.72;;;2.80;99.90;;;;;;4938739;29;20228;-68
2021/01/14 13:31:42;;;;;;;8.82;8.02;;;2.80;99.90;;;;;;4935825;29;20261;-67
2021/01/14 13:34:09;;;;;;;9.00;7.38;;;2.80;99.90;;;;;;4936215;28;20238;-68
2021/01/14 13:36:36;;;;;;;9.93;7.40;;;2.80;99.90;;;;;;4933061;29;20656;-68
2021/01/14 13:39:03;;;;;;;11.00;7.50;;;2.80;99.90;;;;;;4918133;29;20211;-68
2021/01/14 13:41:29;;;;;;;10.98;6.47;;;2.80;99.90;;;;;;4921712;29;20230;-68
2021/01/14 13:43:55;;;;;;;7.10;6.45;;;2.70;99.90;;;;;;4935389;29;20585;-68
2021/01/14 13:46:26;;;;;;;8.68;6.80;;;2.70;99.90;;;;;;4935629;29;20210;-68
2021/01/14 13:48:52;;;;;;;6.63;5.93;;;2.70;99.90;;;;;;4932436;29;20205;-68
2021/01/14 13:51:26;;;;;;;7.68;6.90;;;2.70;99.90;;;;;;4933270;29;20222;-68
2021/01/14 13:53:52;;;;;;;7.40;6.88;;;2.70;99.90;;;;;;4932280;29;20214;-68
2021/01/14 13:56:21;;;;;;;7.82;7.22;;;2.70;99.90;;;;;;4934265;29;20206;-68
2021/01/14 13:58:47;;;;;;;8.48;7.68;;;2.70;99.90;;;;;;4917093;29;20210;-68
2021/01/14 14:01:19;;;;;;;7.78;7.00;;;2.70;99.90;;;;;;4928119;29;20234;-68
2021/01/14 14:03:46;;;;;;;8.50;7.70;;;2.70;99.90;;;;;;4925308;29;20210;-67
2021/01/14 14:06:12;;;;;;;8.15;6.60;;;2.70;99.90;;;;;;4934489;29;20685;-67
2021/01/14 14:08:38;;;;;;;10.85;7.20;;;2.70;99.90;;;;;;4931729;29;20576;-67
2021/01/14 14:11:05;;;;;;;7.85;7.13;;;2.70;99.90;;;;;;4928147;29;20234;-68
2021/01/14 14:13:31;;;;;;;10.52;7.00;;;2.70;99.90;;;;;;4923844;29;20671;-67
2021/01/14 14:15:57;;;;;;;10.77;7.45;;;2.70;99.90;;;;;;4925943;29;20210;-67
2021/01/14 14:18:25;;;;;;;11.18;8.20;;;2.70;99.90;;;;;;4937035;29;20600;-67
2021/01/14 14:20:52;;;;;;;11.20;8.00;;;2.70;99.90;;;;;;4924391;29;20254;-67
2021/01/14 14:23:18;;;;;;;14.38;9.75;;;2.70;99.90;;;;;;4922743;29;20210;-68
2021/01/14 14:25:44;;;;;;;10.50;8.38;;;2.70;99.90;;;;;;4933092;29;20577;-67
2021/01/14 14:28:11;;;;;;;10.75;7.30;;;2.70;99.90;;;;;;4921468;29;20236;-68
2021/01/14 14:30:37;;;;;;;11.65;7.90;;;2.60;99.90;;;;;;4936423;29;20237;-67
2021/01/14 14:33:03;;;;;;;7.82;7.03;;;2.60;99.90;;;;;;4921067;29;20226;-67
2021/01/14 14:35:29;;;;;;;9.80;7.03;;;2.60;99.90;;;;;;4933055;29;20215;-67
2021/01/14 14:37:56;;;;;;;7.63;6.93;;;2.60;99.90;;;;;;4917300;29;20203;-67
2021/01/14 14:40:22;;;;;;;8.80;7.72;;;2.60;99.90;;;;;;4920001;29;20211;-67
2021/01/14 14:42:48;;;;;;;9.13;7.80;;;2.60;99.90;;;;;;4931918;29;20218;-67
2021/01/14 14:45:14;;;;;;;9.30;7.72;;;2.60;99.90;;;;;;4917718;29;20203;-66
2021/01/14 14:47:40;;;;;;;12.48;8.60;;;2.60;99.90;;;;;;4928444;29;20691;-68
2021/01/14 14:50:07;;;;;;;17.65;10.70;;;2.60;99.90;;;;;;4936164;29;20225;-67
2021/01/14 14:52:34;;;;;;;10.57;7.03;;;2.60;99.90;;;;;;4931038;29;20210;-67
2021/01/14 14:55:00;;;;;;;11.25;8.30;;;2.60;99.90;;;;;;4917431;29;20584;-68
2021/01/14 14:57:27;;;;;;;13.85;11.88;;;2.60;99.90;;;;;;4916529;29;20211;-68
2021/01/14 14:59:53;;;;;;;15.18;11.50;;;2.60;99.90;;;;;;4933845;29;20202;-68
2021/01/14 15:02:19;;;;;;;8.38;7.57;;;2.60;99.90;;;;;;4922925;28;20258;-68
2021/01/14 15:04:45;;;;;;;7.90;7.18;;;2.60;99.90;;;;;;4915012;29;20207;-68
2021/01/14 15:07:12;;;;;;;11.93;9.10;;;2.60;99.90;;;;;;4931066;29;20226;-67
2021/01/14 15:09:38;;;;;;;11.23;9.00;;;2.50;99.90;;;;;;4928815;29;20214;-68
2021/01/14 15:12:06;;;;;;;9.07;7.20;;;2.50;99.90;;;;;;4919057;29;20226;-68
2021/01/14 15:14:32;;;;;;;10.52;8.05;;;2.50;99.90;;;;;;4918606;29;20217;-68
2021/01/14 15:16:58;;;;;;;10.93;8.88;;;2.60;99.90;;;;;;4918098;29;20213;-67
2021/01/14 15:19:34;;;;;;;11.15;9.57;;;2.50;99.90;;;;;;4930288;29;20556;-69
2021/01/14 15:22:00;;;;;;;13.73;9.77;;;2.50;99.90;;;;;;4927197;29;20229;-67
2021/01/14 15:24:26;;;;;;;11.48;8.65;;;2.50;99.90;;;;;;4931387;28;20693;-67
2021/01/14 15:26:52;;;;;;;13.38;10.18;;;2.50;99.90;;;;;;4920421;29;20226;-67
2021/01/14 15:29:19;;;;;;;14.65;11.73;;;2.50;99.90;;;;;;4926583;29;20218;-67
2021/01/14 15:31:45;;;;;;;11.52;8.93;;;2.50;99.90;;;;;;4932650;29;20225;-67
2021/01/14 15:34:11;;;;;;;9.88;8.15;;;2.50;99.90;;;;;;4929039;29;20225;-68
2021/01/14 15:36:37;;;;;;;13.23;8.55;;;2.50;99.90;;;;;;4933472;29;20214;-67
2021/01/14 15:39:05;;;;;;;11.00;8.55;;;2.50;99.90;;;;;;4922867;29;20206;-67
2021/01/14 15:41:35;;;;;;;13.15;9.38;;;2.40;99.90;;;;;;4926234;29;20628;-68
2021/01/14 15:44:02;;;;;;;13.05;8.15;;;2.50;99.90;;;;;;4923791;29;20217;-68
2021/01/14 15:46:29;;;;;;;8.80;7.90;;;2.50;99.90;;;;;;4916139;29;20257;-67
2021/01/14 15:48:55;;;;;;;11.15;9.10;;;2.50;99.90;;;;;;4921837;29;20694;-68
2021/01/14 15:51:21;;;;;;;12.60;9.10;;;2.50;99.90;;;;;;4916924;29;20230;-68
2021/01/14 15:53:52;;;;;;;12.98;8.93;;;2.50;99.90;;;;;;4926646;29;20282;-68
2021/01/14 15:56:25;;;;;;;11.32;9.30;;;2.40;99.90;;;;;;4927031;29;20619;-68
2021/01/14 15:58:51;;;;;;;15.15;9.27;;;2.50;99.90;;;;;;4927051;29;20217;-68
2021/01/14 16:01:17;;;;;;;11.95;7.97;;;2.40;99.90;;;;;;4926443;29;20234;-68
2021/01/14 16:03:44;;;;;;;12.30;10.15;;;2.50;99.90;;;;;;4925350;29;20599;-68
2021/01/14 16:06:10;;;;;;;14.68;11.75;;;2.50;99.90;;;;;;4916042;29;20386;-68
2021/01/14 16:08:37;;;;;;;14.25;11.23;;;2.40;99.90;;;;;;4928289;29;20225;-68
2021/01/14 16:11:03;;;;;;;11.98;9.93;;;2.40;99.90;;;;;;4923642;29;20573;-68
2021/01/14 16:13:29;;;;;;;11.73;8.77;;;2.50;99.90;;;;;;4919063;29;20216;-68
2021/01/14 16:15:55;;;;;;;13.52;9.55;;;2.50;99.90;;;;;;4933661;29;20571;-68
2021/01/14 16:18:21;;;;;;;10.35;9.25;;;2.50;99.90;;;;;;4923472;29;20245;-68
2021/01/14 16:20:54;;;;;;;8.55;7.75;;;2.50;99.90;;;;;;4928908;29;20249;-68
2021/01/14 16:23:20;;;;;;;12.98;9.80;;;2.50;99.90;;;;;;4933451;28;20220;-68
2021/01/14 16:25:46;;;;;;;14.15;8.05;;;2.50;99.90;;;;;;4933539;29;20217;-70
2021/01/14 16:28:12;;;;;;;8.55;7.75;;;2.50;99.90;;;;;;4931675;29;20217;-68
2021/01/14 16:30:38;;;;;;;11.23;8.73;;;2.50;99.90;;;;;;4929329;29;20217;-69
2021/01/14 16:33:05;;;;;;;15.15;9.85;;;2.50;99.90;;;;;;4922011;29;20265;-68
2021/01/14 16:35:31;;;;;;;12.57;8.48;;;2.50;99.90;;;;;;4931520;28;20222;-68
2021/01/14 16:37:58;;;;;;;10.57;8.38;;;2.50;99.90;;;;;;4922781;29;20581;-68
2021/01/14 16:40:24;;;;;;;12.65;8.45;;;2.50;99.90;;;;;;4933444;29;20217;-67
2021/01/14 16:42:50;;;;;;;11.20;9.05;;;2.40;99.90;;;;;;4926497;29;20231;-67
2021/01/14 16:45:16;;;;;;;11.95;10.85;;;2.50;99.90;;;;;;4936642;29;20206;-67
2021/01/14 16:47:42;;;;;;;13.35;10.70;;;2.40;99.90;;;;;;4936006;29;20221;-67
2021/01/14 16:50:10;;;;;;;16.15;11.77;;;2.40;99.90;;;;;;4930775;29;20591;-66
2021/01/14 16:52:36;;;;;;;13.18;9.85;;;2.40;99.90;;;;;;4936508;29;20210;-67
2021/01/14 16:55:04;;;;;;;18.45;11.18;;;2.40;99.90;;;;;;4929804;29;20221;-66
2021/01/14 16:57:30;;;;;;;11.40;9.82;;;2.50;99.90;;;;;;4935940;29;20201;-67
2021/01/14 16:59:57;;;;;;;13.55;11.02;;;2.40;99.90;;;;;;4923778;29;20206;-66
2021/01/14 17:02:23;;;;;;;12.57;10.60;;;2.40;99.90;;;;;;4920236;29;20238;-66
2021/01/14 17:04:49;;;;;;;18.00;11.10;;;2.40;99.90;;;;;;4934991;29;20285;-66
2021/01/14 17:07:16;;;;;;;16.23;10.63;;;2.40;99.90;;;;;;4936638;29;20640;-66
2021/01/14 17:09:43;;;;;;;16.85;10.15;;;2.40;99.90;;;;;;4917773;29;20690;-67
2021/01/14 17:12:11;;;;;;;9.35;8.45;;;2.40;99.90;;;;;;4923863;29;20239;-67
2021/01/14 17:14:37;;;;;;;11.93;9.70;;;2.40;99.90;;;;;;4935350;29;20209;-66
2021/01/14 17:17:04;;;;;;;11.10;9.40;;;2.40;99.90;;;;;;4931133;29;20205;-66
2021/01/14 17:19:30;;;;;;;14.13;10.90;;;2.40;99.90;;;;;;4927559;29;20621;-67
2021/01/14 17:21:58;;;;;;;10.88;9.60;;;2.40;99.90;;;;;;4919475;29;20253;-66
2021/01/14 17:24:24;;;;;;;12.90;9.93;;;2.40;99.90;;;;;;4926648;29;20648;-66
2021/01/14 17:26:50;;;;;;;12.18;9.85;;;2.40;99.90;;;;;;4920347;29;20203;-67
2021/01/14 17:29:17;;;;;;;11.43;10.27;;;2.40;99.90;;;;;;4919473;29;20687;-67
2021/01/14 17:31:43;;;;;;;13.98;11.10;;;2.40;99.90;;;;;;4928825;29;20301;-67
2021/01/14 17:34:10;;;;;;;10.70;8.95;;;2.40;99.90;;;;;;4923437;29;20202;-67
2021/01/14 17:36:36;;;;;;;13.02;10.02;;;2.40;99.90;;;;;;4919131;29;20214;-65
2021/01/14 17:39:03;;;;;;;12.20;8.57;;;2.40;99.90;;;;;;4918873;29;20207;-67
2021/01/14 17:41:31;;;;;;;11.70;9.23;;;2.40;99.90;;;;;;4919352;29;20722;-68
2021/01/14 17:43:57;;;;;;;12.00;9.35;;;2.40;99.90;;;;;;4917790;29;20287;-68
2021/01/14 17:46:24;;;;;;;10.50;9.52;;;2.40;99.90;;;;;;4925050;29;20213;-68
2021/01/14 17:48:51;;;;;;;11.55;10.23;;;2.40;99.90;;;;;;4932406;29;20684;-68
2021/01/14 17:51:18;;;;;;;13.40;9.50;;;2.40;99.90;;;;;;4919483;29;20291;-68
2021/01/14 17:53:45;;;;;;;12.45;9.63;;;2.40;99.90;;;;;;4936255;29;20206;-68
2021/01/14 17:56:15;;;;;;;12.77;9.93;;;2.40;99.90;;;;;;4931448;29;20215;-65
2021/01/14 17:58:43;;;;;;;13.52;10.48;;;2.40;99.90;;;;;;4926102;29;20219;-68
2021/01/14 18:01:09;;;;;;;15.95;10.18;;;2.40;99.90;;;;;;4929281;29;20302;-66